Time;durP1;ratioP1;P1;durP2;ratioP2;P2;SDS_P1;SDS_P2;PMS_P1;PMS_P2;Temp;Humidity;BMP_temperature;BMP_pressure;BME280_temperature;BME280_humidity;BME280_pressure;Samples;Min_cycle;Max_cycle;Signal;HPM_P1;HPM_P2
2022/08/03 00:00:50;;;;;;;3.00;2.30;;;;;;;23.02;59.97;95737.63;4893465;29;20195;-80
2022/08/03 00:03:16;;;;;;;3.10;2.20;;;;;;;22.99;60.19;95737.31;4882245;29;20227;-80
2022/08/03 00:05:43;;;;;;;2.20;2.10;;;;;;;22.88;60.12;95731.22;4882795;29;20619;-80
2022/08/03 00:08:09;;;;;;;2.97;2.35;;;;;;;22.85;60.63;95730.91;4882603;29;20203;-79
2022/08/03 00:10:36;;;;;;;5.82;2.30;;;;;;;22.92;59.84;95729.63;4884148;29;20259;-79
2022/08/03 00:13:03;;;;;;;3.10;2.33;;;;;;;22.85;60.58;95729.06;4882565;29;20265;-80
2022/08/03 00:15:31;;;;;;;3.20;2.13;;;;;;;22.86;60.11;95735.13;4896996;29;20207;-80
2022/08/03 00:17:57;;;;;;;2.63;2.20;;;;;;;22.80;60.35;95736.91;4902035;29;20269;-79
2022/08/03 00:20:24;;;;;;;3.05;2.17;;;;;;;22.82;60.02;95737.44;4888088;29;20219;-79
2022/08/03 00:22:51;;;;;;;3.85;2.33;;;;;;;22.73;60.28;95731.03;4901306;29;20234;-80
2022/08/03 00:25:18;;;;;;;3.22;2.08;;;;;;;22.72;60.63;95735.47;4889954;29;20259;-79
2022/08/03 00:27:44;;;;;;;2.25;2.05;;;;;;;22.68;60.45;95734.41;4892456;29;20295;-79
2022/08/03 00:30:11;;;;;;;3.00;2.10;;;;;;;22.70;59.79;95732.34;4889492;29;20204;-80
2022/08/03 00:32:38;;;;;;;2.55;2.17;;;;;;;22.65;59.60;95736.75;4899847;29;20238;-79
2022/08/03 00:35:06;;;;;;;4.40;2.28;;;;;;;22.61;59.90;95735.66;4901368;29;20489;-80
2022/08/03 00:37:32;;;;;;;1.88;1.77;;;;;;;22.69;59.45;95732.59;4884918;29;20227;-79
2022/08/03 00:39:59;;;;;;;2.35;2.00;;;;;;;22.72;59.48;95730.22;4892842;29;20222;-79
2022/08/03 00:42:25;;;;;;;2.60;2.00;;;;;;;22.73;59.53;95731.03;4884346;29;20213;-79
2022/08/03 00:44:51;;;;;;;1.95;1.70;;;;;;;22.72;59.02;95734.69;4890332;29;20263;-80
2022/08/03 00:47:18;;;;;;;2.25;1.88;;;;;;;22.68;59.50;95728.38;4901398;29;20243;-79
2022/08/03 00:49:46;;;;;;;2.97;1.85;;;;;;;22.64;59.19;95729.91;4893290;29;20208;-81
2022/08/03 00:52:15;;;;;;;2.08;1.88;;;;;;;22.57;59.44;95729.31;4882249;29;20219;-79
2022/08/03 00:54:41;;;;;;;1.58;1.48;;;;;;;22.53;58.87;95729.00;4889130;29;20226;-79
2022/08/03 00:57:08;;;;;;;2.47;1.60;;;;;;;22.55;58.92;95726.91;4901794;29;20231;-80
2022/08/03 00:59:36;;;;;;;2.17;1.50;;;;;;;22.56;58.56;95725.88;4900725;29;20206;-80
2022/08/03 01:02:03;;;;;;;1.48;1.38;;;;;;;22.57;58.36;95729.31;4900414;29;20206;-80
2022/08/03 01:04:29;;;;;;;1.70;1.60;;;;;;;22.57;58.32;95727.47;4893014;29;20227;-79
2022/08/03 01:07:06;;;;;;;1.58;1.48;;;;;;;22.55;58.14;95726.13;4901072;29;20230;-80
2022/08/03 01:09:47;;;;;;;4.30;1.40;;;;;;;22.47;58.19;95724.75;4894506;29;20204;-79
2022/08/03 01:12:22;;;;;;;2.03;1.38;;;;;;;22.42;58.61;95729.94;4881536;29;20227;-80
2022/08/03 01:14:53;;;;;;;1.63;1.50;;;;;;;22.40;58.62;95722.31;4882965;29;20236;-80
2022/08/03 01:17:25;;;;;;;1.40;1.30;;;;;;;22.45;58.45;95718.97;4882122;29;20228;-79
2022/08/03 01:19:58;;;;;;;2.63;1.70;;;;;;;22.50;58.86;95715.59;4888707;29;20214;-80
2022/08/03 01:22:49;;;;;;;1.75;1.50;;;;;;;22.50;58.91;95718.22;4899247;29;20575;-80
2022/08/03 01:25:28;;;;;;;3.30;1.60;;;;;;;22.41;59.57;95710.00;4900558;29;20245;-78
2022/08/03 01:28:06;;;;;;;2.28;1.60;;;;;;;22.38;59.06;95713.09;4889907;29;20211;-79
2022/08/03 01:30:37;;;;;;;1.42;1.33;;;;;;;22.37;59.12;95706.28;4889989;29;20203;-79
2022/08/03 01:33:06;;;;;;;2.10;1.42;;;;;;;22.40;58.73;95711.03;4880897;29;20398;-79
2022/08/03 01:35:36;;;;;;;2.10;1.30;;;;;;;22.31;58.95;95702.81;4896669;29;20203;-78
2022/08/03 01:38:06;;;;;;;2.13;1.48;;;;;;;22.35;58.47;95706.50;4900425;29;20357;-79
2022/08/03 01:40:36;;;;;;;1.95;1.30;;;;;;;22.32;58.50;95714.13;4885231;29;20255;-79
2022/08/03 01:43:04;;;;;;;3.92;1.38;;;;;;;22.20;59.29;95711.63;4880318;29;20239;-79
2022/08/03 01:45:34;;;;;;;2.17;1.38;;;;;;;22.16;59.21;95707.09;4894891;29;20203;-80
2022/08/03 01:48:01;;;;;;;3.78;1.50;;;;;;;22.16;59.27;95704.47;4900296;29;20206;-80
2022/08/03 01:50:30;;;;;;;1.60;1.50;;;;;;;22.17;59.25;95709.47;4885067;29;20247;-80
2022/08/03 01:52:58;;;;;;;1.60;1.50;;;;;;;22.09;59.30;95704.69;4880221;29;20235;-80
2022/08/03 01:55:27;;;;;;;2.35;1.40;;;;;;;22.05;59.82;95703.59;4894116;29;20203;-80
2022/08/03 01:57:55;;;;;;;1.50;1.40;;;;;;;22.00;60.06;95706.13;4899798;29;20297;-79
2022/08/03 02:00:23;;;;;;;1.50;1.40;;;;;;;22.01;59.95;95702.47;4897977;29;20636;-79
2022/08/03 02:02:53;;;;;;;1.52;1.42;;;;;;;22.00;60.32;95699.06;4898636;29;20234;-79
2022/08/03 02:05:20;;;;;;;2.58;1.20;;;;;;;21.99;60.22;95700.06;4893117;29;20243;-79
2022/08/03 02:07:48;;;;;;;2.17;1.50;;;;;;;21.90;60.96;95698.13;4899741;29;20227;-80
2022/08/03 02:10:18;;;;;;;1.63;1.45;;;;;;;21.92;60.96;95694.25;4888007;29;20274;-79
2022/08/03 02:12:47;;;;;;;1.60;1.50;;;;;;;21.91;61.20;95700.53;4880737;29;20239;-79
2022/08/03 02:15:15;;;;;;;2.00;1.65;;;;;;;21.89;61.16;95701.78;4891720;29;20206;-80
2022/08/03 02:17:44;;;;;;;1.65;1.52;;;;;;;21.87;60.66;95703.88;4900212;29;20237;-80
2022/08/03 02:20:13;;;;;;;1.35;1.25;;;;;;;21.84;60.96;95709.59;4886636;29;20567;-78
2022/08/03 02:22:42;;;;;;;1.60;1.50;;;;;;;21.79;61.24;95704.28;4880392;29;20291;-80
2022/08/03 02:25:10;;;;;;;1.50;1.40;;;;;;;21.84;60.71;95710.38;4882075;29;20220;-79
2022/08/03 02:27:40;;;;;;;1.73;1.30;;;;;;;21.84;60.89;95701.72;4881555;29;20235;-80
2022/08/03 02:30:09;;;;;;;2.28;1.50;;;;;;;21.80;60.80;95703.25;4891117;29;20210;-80
2022/08/03 02:32:38;;;;;;;1.50;1.33;;;;;;;21.74;61.09;95706.84;4882279;29;20243;-79
2022/08/03 02:35:09;;;;;;;1.55;1.40;;;;;;;21.70;61.12;95709.97;4889362;29;20203;-78
2022/08/03 02:37:42;;;;;;;1.42;1.33;;;;;;;21.67;61.33;95713.06;4899286;29;20231;-79
2022/08/03 02:40:10;;;;;;;1.40;1.20;;;;;;;21.66;61.28;95710.69;4888048;29;20740;-79
2022/08/03 02:42:40;;;;;;;1.40;1.30;;;;;;;21.61;61.93;95710.59;4879733;29;20230;-80
2022/08/03 02:45:11;;;;;;;3.75;1.33;;;;;;;21.55;61.18;95714.22;4889357;29;20207;-80
2022/08/03 02:47:40;;;;;;;1.42;1.33;;;;;;;21.48;61.37;95714.38;4899208;29;20235;-78
2022/08/03 02:50:09;;;;;;;3.47;1.45;;;;;;;21.45;62.04;95709.63;4896531;29;20288;-80
2022/08/03 02:52:38;;;;;;;1.88;1.35;;;;;;;21.53;61.79;95703.97;4898518;29;20238;-78
2022/08/03 02:55:07;;;;;;;1.40;1.27;;;;;;;21.61;61.41;95705.38;4889502;29;20211;-81
2022/08/03 02:57:36;;;;;;;1.77;1.45;;;;;;;21.63;61.36;95701.47;4880490;29;20228;-79
2022/08/03 03:00:05;;;;;;;1.70;1.60;;;;;;;21.67;61.28;95705.19;4895044;29;20211;-78
2022/08/03 03:02:32;;;;;;;1.55;1.40;;;;;;;21.65;61.26;95704.66;4898340;29;20571;-79
2022/08/03 03:05:00;;;;;;;2.38;1.40;;;;;;;21.61;61.25;95708.00;4883000;29;20208;-80
2022/08/03 03:07:27;;;;;;;2.58;1.35;;;;;;;21.61;61.31;95698.28;4880492;29;20227;-81
2022/08/03 03:09:55;;;;;;;1.10;1.10;;;;;;;21.53;61.26;95701.34;4887892;29;20657;-81
2022/08/03 03:12:22;;;;;;;1.60;1.50;;;;;;;21.46;61.78;95697.31;4897672;29;20231;-79
2022/08/03 03:14:49;;;;;;;1.40;1.30;;;;;;;21.41;61.85;95705.09;4892388;29;20283;-79
2022/08/03 03:17:17;;;;;;;1.60;1.50;;;;;;;21.48;61.60;95705.72;4884919;29;20247;-80
2022/08/03 03:19:45;;;;;;;2.35;1.27;;;;;;;21.47;61.64;95699.69;4892593;29;20298;-80
2022/08/03 03:22:13;;;;;;;4.35;1.38;;;;;;;21.49;61.50;95699.44;4883379;29;20199;-80
2022/08/03 03:24:42;;;;;;;1.45;1.35;;;;;;;21.55;61.23;95699.25;4898536;29;20301;-79
2022/08/03 03:27:10;;;;;;;1.48;1.38;;;;;;;21.52;61.71;95705.00;4895152;29;20306;-79
2022/08/03 03:29:37;;;;;;;1.40;1.30;;;;;;;21.41;61.83;95697.22;4885115;29;20207;-78
2022/08/03 03:32:04;;;;;;;1.50;1.40;;;;;;;21.40;61.99;95696.44;4897884;29;20230;-79
2022/08/03 03:34:30;;;;;;;1.40;1.30;;;;;;;21.43;61.70;95700.41;4883869;29;20239;-80
2022/08/03 03:36:57;;;;;;;3.15;1.50;;;;;;;21.40;61.57;95698.25;4885097;29;20775;-79
2022/08/03 03:39:23;;;;;;;2.83;1.48;;;;;;;21.23;62.23;95701.72;4899444;29;20230;-80
2022/08/03 03:41:50;;;;;;;1.40;1.30;;;;;;;21.20;62.54;95696.16;4884406;29;20290;-79
2022/08/03 03:44:18;;;;;;;1.60;1.50;;;;;;;21.21;62.18;95701.16;4901930;29;20238;-80
2022/08/03 03:46:44;;;;;;;1.60;1.50;;;;;;;21.19;62.53;95700.56;4903470;29;20226;-79
2022/08/03 03:49:11;;;;;;;1.95;1.35;;;;;;;21.23;63.03;95700.91;4886246;29;20203;-78
2022/08/03 03:51:37;;;;;;;2.00;1.70;;;;;;;21.40;64.66;95706.91;4909052;29;20202;-78
2022/08/03 03:54:05;;;;;;;3.72;1.50;;;;;;;21.56;62.11;95700.84;4919184;29;20234;-79
2022/08/03 03:56:33;;;;;;;3.30;1.67;;;;;;;21.80;63.25;95703.25;4901363;29;20235;-79
2022/08/03 03:58:59;;;;;;;1.55;1.40;;;;;;;21.85;62.00;95706.72;4901571;29;20211;-79
2022/08/03 04:01:27;;;;;;;1.90;1.60;;;;;;;21.81;62.31;95700.38;4900137;29;20211;-77
2022/08/03 04:03:53;;;;;;;2.25;1.38;;;;;;;21.93;61.75;95700.28;4900286;29;20242;-78
2022/08/03 04:11:50;;;;;;;1.42;1.33;;;;;;;21.90;61.23;95706.78;4881281;29;20244;-77
2022/08/03 04:14:20;;;;;;;1.83;1.60;;;;;;;21.82;61.27;95714.28;4904167;29;20238;-78
2022/08/03 04:16:51;;;;;;;2.13;1.65;;;;;;;21.77;61.40;95708.97;4887639;29;20220;-79
2022/08/03 04:19:24;;;;;;;2.40;1.80;;;;;;;21.88;61.63;95713.31;4882355;29;20727;-79
2022/08/03 04:21:54;;;;;;;2.35;1.33;;;;;;;21.80;60.99;95703.25;4881330;29;20208;-78
2022/08/03 04:24:23;;;;;;;1.77;1.60;;;;;;;21.80;61.31;95711.91;4899088;29;20760;-80
2022/08/03 04:26:51;;;;;;;1.58;1.27;;;;;;;21.94;61.25;95712.31;4899304;29;20719;-81
2022/08/03 04:29:19;;;;;;;1.52;1.42;;;;;;;22.09;60.92;95715.16;4881627;29;20212;-82
2022/08/03 04:31:48;;;;;;;1.40;1.30;;;;;;;22.24;61.05;95712.72;4886152;29;20255;-82
2022/08/03 04:34:15;;;;;;;1.45;1.35;;;;;;;22.36;60.09;95715.19;4917274;29;20241;-81
2022/08/03 04:36:49;;;;;;;2.10;1.70;;;;;;;22.42;60.15;95713.41;4909306;29;20413;-81
2022/08/03 04:39:20;;;;;;;1.55;1.40;;;;;;;22.50;60.02;95719.03;4898573;29;20225;-80
2022/08/03 04:41:48;;;;;;;2.08;1.45;;;;;;;22.44;59.60;95716.59;4897748;29;20213;-79
2022/08/03 04:44:15;;;;;;;1.65;1.55;;;;;;;22.42;59.33;95708.97;4894202;29;20322;-78
2022/08/03 04:46:44;;;;;;;1.67;1.58;;;;;;;22.47;58.51;95718.72;4903075;29;20612;-79
2022/08/03 04:49:12;;;;;;;2.75;1.50;;;;;;;22.59;59.74;95720.13;4892113;29;20188;-80
2022/08/03 04:51:39;;;;;;;1.85;1.48;;;;;;;22.71;58.18;95715.50;4881353;29;20228;-80
2022/08/03 04:54:06;;;;;;;2.55;1.60;;;;;;;22.87;59.10;95721.75;4890423;29;20287;-78
2022/08/03 04:56:33;;;;;;;1.48;1.33;;;;;;;22.91;59.12;95722.81;4882365;29;20315;-78
2022/08/03 04:58:59;;;;;;;1.83;1.55;;;;;;;22.93;57.39;95719.94;4892512;29;20310;-79
2022/08/03 05:01:25;;;;;;;1.60;1.50;;;;;;;23.09;58.54;95724.28;4890871;29;20549;-77
2022/08/03 05:03:52;;;;;;;2.53;1.40;;;;;;;23.18;58.39;95724.59;4882804;29;20242;-77
2022/08/03 05:06:19;;;;;;;1.67;1.58;;;;;;;23.31;56.24;95724.16;4897970;29;20779;-79
2022/08/03 05:08:46;;;;;;;8.10;3.17;;;;;;;23.34;56.15;95721.81;4899334;29;20202;-77
2022/08/03 05:11:12;;;;;;;3.05;2.17;;;;;;;23.37;55.13;95729.19;4898358;29;20214;-79
2022/08/03 05:13:39;;;;;;;3.03;2.00;;;;;;;23.31;56.19;95732.03;4899102;29;20242;-79
2022/08/03 05:16:05;;;;;;;4.55;2.85;;;;;;;23.18;56.10;95732.47;4899396;29;20238;-78
2022/08/03 05:18:31;;;;;;;25.05;22.67;;;;;;;23.16;56.20;95735.34;4899001;29;20262;-78
2022/08/03 05:20:58;;;;;;;8.82;7.07;;;;;;;23.21;56.72;95734.59;4898745;29;20226;-79
2022/08/03 05:23:25;;;;;;;18.48;16.67;;;;;;;23.16;56.58;95748.50;4898682;29;20231;-77
2022/08/03 05:25:52;;;;;;;4.43;4.03;;;;;;;23.29;56.13;95740.16;4898749;29;20772;-79
2022/08/03 05:28:18;;;;;;;9.27;8.38;;;;;;;23.32;55.69;95742.28;4899707;29;20721;-80
2022/08/03 05:30:46;;;;;;;5.57;4.72;;;;;;;23.15;55.87;95741.66;4898308;29;20259;-80
2022/08/03 05:33:13;;;;;;;3.05;2.85;;;;;;;23.27;55.97;95744.13;4898209;29;20243;-79
2022/08/03 05:35:39;;;;;;;2.75;2.35;;;;;;;23.31;55.70;95745.16;4897786;29;20591;-80
2022/08/03 05:38:06;;;;;;;2.78;2.03;;;;;;;23.41;55.65;95743.41;4899130;29;20300;-80
2022/08/03 05:40:34;;;;;;;3.15;1.80;;;;;;;23.48;55.36;95743.19;4897918;29;20215;-80
2022/08/03 05:43:01;;;;;;;2.92;1.98;;;;;;;23.50;55.09;95748.97;4898171;29;20246;-79
2022/08/03 05:45:27;;;;;;;2.38;1.90;;;;;;;23.62;55.48;95748.84;4897586;29;20266;-80
2022/08/03 05:47:54;;;;;;;2.65;1.73;;;;;;;23.75;55.34;95746.53;4898695;29;20723;-80
2022/08/03 05:50:21;;;;;;;3.95;2.00;;;;;;;23.83;54.99;95749.75;4897759;29;20675;-80
2022/08/03 05:52:47;;;;;;;2.30;2.10;;;;;;;23.86;54.61;95742.09;4897686;29;20238;-80
2022/08/03 05:55:14;;;;;;;2.15;1.95;;;;;;;23.78;54.83;95742.63;4897241;29;20221;-79
2022/08/03 05:57:42;;;;;;;2.05;1.80;;;;;;;23.86;55.36;95744.75;4898873;29;20238;-80
2022/08/03 06:00:11;;;;;;;1.98;1.77;;;;;;;23.87;55.00;95748.16;4897660;29;20214;-80
2022/08/03 06:02:37;;;;;;;1.95;1.80;;;;;;;23.88;54.97;95739.22;4898048;29;20242;-80
2022/08/03 06:05:04;;;;;;;1.73;1.63;;;;;;;23.83;54.76;95747.09;4898630;29;20266;-79
2022/08/03 06:07:31;;;;;;;2.75;2.10;;;;;;;23.94;54.54;95744.25;4897735;29;20238;-80
2022/08/03 06:09:57;;;;;;;2.33;2.15;;;;;;;24.06;54.28;95746.66;4897936;29;20234;-80
2022/08/03 06:12:24;;;;;;;11.38;10.43;;;;;;;24.04;54.20;95754.84;4896855;29;20214;-79
2022/08/03 06:14:52;;;;;;;4.20;3.58;;;;;;;24.13;53.27;95744.59;4897186;29;20207;-80
2022/08/03 06:17:18;;;;;;;2.40;1.90;;;;;;;24.27;53.79;95751.00;4897344;29;20227;-78
2022/08/03 06:19:45;;;;;;;5.15;3.03;;;;;;;24.37;53.88;95747.59;4897771;29;20750;-79
2022/08/03 06:22:11;;;;;;;2.35;2.13;;;;;;;24.21;53.52;95751.22;4897526;29;20218;-79
2022/08/03 06:24:38;;;;;;;1.98;1.83;;;;;;;24.15;53.84;95753.03;4897557;29;20599;-80
2022/08/03 06:27:04;;;;;;;3.28;1.70;;;;;;;24.27;54.29;95760.72;4897516;29;20231;-80
2022/08/03 06:29:31;;;;;;;5.03;2.15;;;;;;;24.41;54.11;95762.63;4898706;29;20238;-79
2022/08/03 06:31:58;;;;;;;2.45;1.83;;;;;;;24.35;53.13;95758.41;4898065;29;20210;-81
2022/08/03 06:34:25;;;;;;;2.70;2.08;;;;;;;24.44;52.83;95766.56;4898354;29;20731;-79
2022/08/03 06:36:53;;;;;;;2.80;2.50;;;;;;;24.54;53.17;95757.91;4898740;29;20289;-80
2022/08/03 06:39:20;;;;;;;4.60;2.47;;;;;;;24.68;53.10;95764.25;4899015;29;20211;-80
2022/08/03 06:41:46;;;;;;;10.00;2.13;;;;;;;24.84;52.67;95757.97;4898305;29;20215;-79
2022/08/03 06:44:13;;;;;;;2.10;1.90;;;;;;;24.99;52.56;95765.13;4897660;29;20525;-79
2022/08/03 06:46:39;;;;;;;2.10;1.90;;;;;;;25.04;51.52;95760.63;4899202;29;20223;-78
2022/08/03 06:49:07;;;;;;;2.25;1.77;;;;;;;25.02;51.21;95762.75;4898085;29;20214;-81
2022/08/03 06:51:34;;;;;;;4.03;2.00;;;;;;;24.85;50.71;95754.28;4898592;29;20202;-80
2022/08/03 06:54:01;;;;;;;4.50;2.10;;;;;;;24.81;51.58;95765.63;4898567;29;20305;-80
2022/08/03 06:56:27;;;;;;;4.05;1.95;;;;;;;24.89;51.99;95765.09;4898778;29;20246;-81
2022/08/03 06:58:53;;;;;;;3.03;2.00;;;;;;;25.00;51.50;95764.88;4897013;29;20277;-78
2022/08/03 07:01:20;;;;;;;2.28;1.85;;;;;;;25.10;51.66;95762.22;4897573;29;20202;-79
2022/08/03 07:03:46;;;;;;;7.15;1.98;;;;;;;25.04;52.33;95759.84;4896890;29;20627;-81
2022/08/03 07:06:14;;;;;;;4.78;1.88;;;;;;;25.09;51.67;95760.66;4898380;29;20298;-80
2022/08/03 07:08:41;;;;;;;6.47;2.20;;;;;;;25.15;51.19;95755.38;4898340;29;20218;-80
2022/08/03 07:11:07;;;;;;;2.22;1.95;;;;;;;25.19;50.48;95749.34;4898236;29;20210;-80
2022/08/03 07:13:34;;;;;;;3.08;2.00;;;;;;;25.13;49.85;95753.00;4896729;29;20847;-81
2022/08/03 07:16:00;;;;;;;3.13;1.80;;;;;;;25.21;49.60;95749.84;4897554;29;20230;-80
2022/08/03 07:18:27;;;;;;;3.05;1.70;;;;;;;25.21;49.27;95756.97;4897312;29;20239;-80
2022/08/03 07:20:53;;;;;;;3.95;2.10;;;;;;;25.34;49.70;95751.94;4898172;29;20218;-81
2022/08/03 07:23:21;;;;;;;2.70;1.88;;;;;;;25.42;48.57;95754.03;4897687;29;20234;-80
2022/08/03 07:25:47;;;;;;;1.75;1.65;;;;;;;25.54;49.37;95748.50;4897933;29;20210;-81
2022/08/03 07:28:14;;;;;;;2.08;1.60;;;;;;;25.69;49.40;95742.41;4897863;29;20246;-81
2022/08/03 07:30:40;;;;;;;2.38;1.65;;;;;;;25.88;48.44;95750.56;4896601;29;20294;-79
2022/08/03 07:33:07;;;;;;;3.40;1.67;;;;;;;25.97;47.59;95735.75;4898112;29;20342;-79
2022/08/03 07:35:33;;;;;;;1.92;1.52;;;;;;;26.12;47.59;95733.03;4898380;29;20206;-81
2022/08/03 07:37:59;;;;;;;3.35;1.92;;;;;;;26.20;46.79;95737.75;4898213;29;20924;-78
2022/08/03 07:40:27;;;;;;;1.90;1.77;;;;;;;26.24;46.47;95736.16;4898049;29;20259;-81
2022/08/03 07:42:54;;;;;;;2.80;2.60;;;;;;;26.32;46.25;95740.91;4901023;29;20234;-80
2022/08/03 07:45:22;;;;;;;2.28;2.03;;;;;;;26.44;46.08;95733.44;4901828;29;20210;-80
2022/08/03 07:47:48;;;;;;;2.78;2.13;;;;;;;26.60;46.64;95730.69;4900714;29;20251;-80
2022/08/03 07:50:15;;;;;;;1.60;1.50;;;;;;;26.66;46.28;95727.75;4901812;29;20230;-81
2022/08/03 07:52:52;;;;;;;1.67;1.58;;;;;;;26.77;46.08;95737.19;4901271;29;20418;-81
2022/08/03 07:55:20;;;;;;;3.13;1.60;;;;;;;26.90;45.92;95733.16;4901595;29;20305;-80
2022/08/03 07:57:58;;;;;;;3.83;2.33;;;;;;;27.06;45.98;95729.34;4901050;29;20639;-80
2022/08/03 08:00:25;;;;;;;3.05;1.50;;;;;;;27.03;44.84;95732.53;4883283;29;20231;-79
2022/08/03 08:02:51;;;;;;;2.38;1.55;;;;;;;27.10;44.48;95727.75;4884293;29;20235;-80
2022/08/03 08:05:18;;;;;;;1.50;1.40;;;;;;;27.30;45.39;95725.97;4901834;29;20218;-79
2022/08/03 08:07:44;;;;;;;1.52;1.40;;;;;;;27.36;45.04;95727.50;4904886;29;20299;-82
2022/08/03 08:10:11;;;;;;;4.03;1.52;;;;;;;27.25;43.94;95726.81;4907985;29;20211;-81
2022/08/03 08:12:37;;;;;;;2.67;1.33;;;;;;;27.13;44.60;95724.50;4907087;29;20326;-80
2022/08/03 08:15:07;;;;;;;1.80;1.70;;;;;;;27.22;44.38;95716.78;4907033;29;20230;-82
2022/08/03 08:17:41;;;;;;;2.38;1.52;;;;;;;27.30;43.92;95723.34;4908917;29;20230;-82
2022/08/03 08:20:09;;;;;;;1.65;1.52;;;;;;;27.33;44.58;95726.19;4910989;29;20223;-82
2022/08/03 08:22:35;;;;;;;1.60;1.50;;;;;;;27.40;44.46;95723.22;4911748;29;20239;-81
2022/08/03 08:25:02;;;;;;;1.85;1.55;;;;;;;27.48;44.52;95722.63;4911349;29;20691;-80
2022/08/03 08:27:29;;;;;;;1.45;1.35;;;;;;;27.55;43.83;95720.44;4911937;29;20226;-81
2022/08/03 08:29:55;;;;;;;1.65;1.38;;;;;;;27.61;43.65;95716.69;4911176;29;20220;-81
2022/08/03 08:32:23;;;;;;;4.53;1.38;;;;;;;27.60;42.87;95717.78;4909531;29;20203;-81
2022/08/03 08:34:49;;;;;;;2.70;1.27;;;;;;;27.67;43.20;95734.09;4910838;29;20259;-82
2022/08/03 08:37:16;;;;;;;4.43;2.17;;;;;;;27.72;42.95;95723.44;4911568;29;20222;-80
2022/08/03 08:39:42;;;;;;;2.97;2.30;;;;;;;27.68;42.57;95719.03;4910215;29;20215;-81
2022/08/03 08:42:10;;;;;;;1.83;1.35;;;;;;;27.75;42.92;95725.53;4909349;29;20206;-81
2022/08/03 08:44:36;;;;;;;1.73;1.50;;;;;;;27.90;42.75;95718.53;4910674;29;20238;-81
2022/08/03 08:47:03;;;;;;;1.42;1.33;;;;;;;27.97;42.25;95719.72;4910855;29;20231;-82
2022/08/03 08:49:35;;;;;;;1.60;1.50;;;;;;;28.08;42.20;95720.41;4909996;29;20211;-80
2022/08/03 08:52:03;;;;;;;1.50;1.30;;;;;;;28.15;41.93;95718.19;4908936;29;20243;-80
2022/08/03 08:54:32;;;;;;;1.60;1.50;;;;;;;28.10;41.12;95716.38;4909409;29;20305;-80
2022/08/03 08:57:03;;;;;;;2.90;1.60;;;;;;;28.03;40.72;95720.47;4910290;29;20257;-80
2022/08/03 08:59:32;;;;;;;1.65;1.45;;;;;;;28.09;41.24;95712.19;4909848;29;20239;-81
2022/08/03 09:01:59;;;;;;;1.45;1.35;;;;;;;28.26;41.35;95714.38;4907872;29;20207;-80
2022/08/03 09:04:26;;;;;;;1.40;1.25;;;;;;;28.43;42.20;95711.25;4908070;29;20227;-82
2022/08/03 09:06:54;;;;;;;3.95;1.25;;;;;;;28.58;39.42;95710.22;4908475;29;20644;-81
2022/08/03 09:09:20;;;;;;;1.55;1.33;;;;;;;28.65;39.64;95708.81;4908287;29;20671;-79
2022/08/03 09:11:48;;;;;;;1.27;1.20;;;;;;;28.71;39.78;95707.63;4907261;29;20266;-82
2022/08/03 09:14:15;;;;;;;2.45;1.30;;;;;;;28.88;39.21;95704.50;4907636;29;20265;-80
2022/08/03 09:16:55;;;;;;;1.08;1.08;;;;;;;28.95;38.93;95704.91;4907643;29;20227;-80
2022/08/03 09:19:22;;;;;;;1.45;1.02;;;;;;;29.03;39.18;95706.13;4909450;29;20226;-82
2022/08/03 09:22:09;;;;;;;1.42;1.10;;;;;;;29.06;38.26;95708.19;4906985;29;20211;-82
2022/08/03 09:24:36;;;;;;;1.10;1.10;;;;;;;29.17;37.58;95710.38;4907977;29;20643;-80
2022/08/03 09:27:05;;;;;;;4.78;1.15;;;;;;;29.08;37.74;95709.47;4908889;29;20223;-80
2022/08/03 09:29:33;;;;;;;2.17;1.30;;;;;;;29.13;37.11;95698.00;4907574;29;20209;-80
2022/08/03 09:32:01;;;;;;;1.52;1.20;;;;;;;29.26;36.89;95707.84;4908241;29;20210;-79
2022/08/03 09:34:28;;;;;;;1.30;1.10;;;;;;;29.49;36.42;95698.97;4907393;29;20239;-82
2022/08/03 09:36:56;;;;;;;1.30;1.20;;;;;;;29.72;36.12;95696.44;4908076;29;20328;-81
2022/08/03 09:39:26;;;;;;;1.67;1.30;;;;;;;29.91;36.33;95697.13;4907658;29;20206;-82
2022/08/03 09:42:06;;;;;;;1.90;1.30;;;;;;;29.92;34.01;95701.34;4908352;29;20270;-82
2022/08/03 09:44:36;;;;;;;4.30;1.40;;;;;;;29.72;34.41;95707.84;4906939;29;20230;-81
2022/08/03 09:47:04;;;;;;;2.72;1.38;;;;;;;29.70;34.42;95703.91;4908967;29;20227;-80
2022/08/03 09:49:31;;;;;;;4.07;1.67;;;;;;;29.85;33.84;95700.94;4908235;29;20226;-81
2022/08/03 09:52:01;;;;;;;1.27;1.10;;;;;;;29.94;35.16;95699.19;4906743;29;20207;-80
2022/08/03 09:54:30;;;;;;;1.65;1.00;;;;;;;30.16;34.26;95698.50;4905652;29;20282;-81
2022/08/03 09:56:57;;;;;;;2.25;1.10;;;;;;;30.22;32.41;95706.06;4907152;29;20238;-80
2022/08/03 09:59:25;;;;;;;3.63;1.40;;;;;;;30.09;33.59;95706.06;4907876;29;20215;-81
2022/08/03 10:01:52;;;;;;;2.13;1.35;;;;;;;30.13;34.20;95707.06;4906429;29;20889;-81
2022/08/03 10:04:18;;;;;;;2.97;1.10;;;;;;;30.15;33.21;95710.22;4905973;29;20275;-80
2022/08/03 10:06:46;;;;;;;1.10;1.10;;;;;;;30.21;32.99;95701.81;4906227;29;20236;-81
2022/08/03 10:09:14;;;;;;;1.30;1.20;;;;;;;30.20;32.84;95700.28;4906838;29;20255;-80
2022/08/03 10:11:43;;;;;;;2.45;1.20;;;;;;;30.38;33.44;95703.09;4905327;29;20203;-81
2022/08/03 10:14:17;;;;;;;1.35;1.15;;;;;;;30.37;32.70;95696.19;4904210;29;20234;-81
2022/08/03 10:16:45;;;;;;;2.15;1.30;;;;;;;30.36;32.71;95691.97;4906532;29;20238;-82
2022/08/03 10:19:12;;;;;;;2.17;1.20;;;;;;;30.53;32.00;95692.13;4906285;29;20270;-80
2022/08/03 10:21:41;;;;;;;1.20;1.10;;;;;;;30.42;31.50;95691.53;4905056;29;20761;-81
2022/08/03 10:24:10;;;;;;;3.13;2.85;;;;;;;30.67;32.39;95690.22;4905776;29;20230;-81
2022/08/03 10:26:39;;;;;;;4.90;4.50;;;;;;;31.06;32.14;95686.09;4905874;29;20364;-80
2022/08/03 10:29:21;;;;;;;2.08;1.88;;;;;;;31.27;29.60;95676.56;4906273;29;20707;-82
2022/08/03 10:31:49;;;;;;;1.08;1.08;;;;;;;31.30;29.21;95683.13;4905324;29;20217;-80
2022/08/03 10:34:22;;;;;;;2.53;1.17;;;;;;;31.06;29.02;95675.47;4904632;29;20297;-81
2022/08/03 10:36:49;;;;;;;1.20;1.10;;;;;;;31.11;30.41;95676.16;4905478;29;20223;-81
2022/08/03 10:39:19;;;;;;;1.10;1.10;;;;;;;31.25;29.59;95673.41;4905242;29;20215;-81
2022/08/03 10:41:48;;;;;;;1.10;1.10;;;;;;;31.39;30.08;95678.63;4904520;29;20210;-80
2022/08/03 10:44:19;;;;;;;2.53;1.10;;;;;;;31.35;29.47;95673.16;4905704;29;20234;-80
2022/08/03 10:46:47;;;;;;;11.07;10.00;;;;;;;31.50;30.63;95675.41;4913550;29;20244;-81
2022/08/03 10:49:14;;;;;;;1.25;1.15;;;;;;;31.42;29.54;95678.81;4924025;29;20257;-80
2022/08/03 10:51:42;;;;;;;2.58;1.25;;;;;;;31.47;29.62;95661.91;4923132;29;20246;-80
2022/08/03 10:57:33;;;;;;;1.38;1.13;;;;;;;31.63;29.84;95659.63;4923156;29;20741;-80
2022/08/03 10:57:45;;;;;;;1.20;1.10;;;;;;;31.84;30.17;95661.44;4924518;29;20226;-80
2022/08/03 11:00:13;;;;;;;1.50;1.30;;;;;;;31.91;29.59;95653.81;4902939;29;20210;-80
2022/08/03 11:03:07;;;;;;;1.33;1.23;;;;;;;31.89;28.34;95649.88;4905527;29;20267;-80
2022/08/03 11:05:36;;;;;;;4.20;1.30;;;;;;;31.98;28.42;95652.53;4887020;29;20184;-80
2022/08/03 11:08:33;;;;;;;2.35;1.00;;;;;;;32.15;28.71;95650.69;4886555;29;20254;-80
2022/08/03 11:11:02;;;;;;;1.15;1.10;;;;;;;32.06;28.13;95657.88;4886140;29;20290;-81
2022/08/03 11:13:32;;;;;;;1.05;1.00;;;;;;;32.19;28.45;95653.50;4886494;29;20239;-81
2022/08/03 11:16:03;;;;;;;10.48;9.52;;;;;;;32.33;28.11;95651.50;4886672;29;20804;-81
2022/08/03 11:18:30;;;;;;;2.92;2.47;;;;;;;32.41;28.42;95650.72;4886641;29;20215;-81
2022/08/03 11:20:58;;;;;;;2.10;2.00;;;;;;;32.34;27.34;95642.41;4903932;29;20290;-80
2022/08/03 11:23:42;;;;;;;1.40;1.30;;;;;;;32.24;27.76;95648.84;4905057;29;20267;-80
2022/08/03 11:26:14;;;;;;;1.20;1.20;;;;;;;32.24;28.16;95643.53;4892152;29;20303;-81
2022/08/03 11:28:41;;;;;;;1.60;1.50;;;;;;;32.19;27.67;95643.63;4901558;29;20214;-79
2022/08/03 11:31:49;;;;;;;1.33;1.05;;;;;;;32.14;28.42;95651.00;4904267;29;20214;-81
2022/08/03 11:34:16;;;;;;;1.60;1.10;;;;;;;32.12;27.17;95655.88;4902687;29;20714;-80
2022/08/03 11:37:22;;;;;;;1.20;1.10;;;;;;;32.15;26.25;95644.56;4905492;29;20231;-80
2022/08/03 11:39:51;;;;;;;2.40;1.40;;;;;;;32.18;28.17;95641.28;4904330;29;20216;-81
2022/08/03 11:42:46;;;;;;;2.35;1.40;;;;;;;32.38;27.78;95646.03;4903587;29;20269;-80
2022/08/03 11:45:13;;;;;;;2.60;1.13;;;;;;;32.36;27.43;95637.56;4905066;29;20230;-80
2022/08/03 11:47:42;;;;;;;1.30;1.20;;;;;;;32.50;27.81;95634.75;4904829;29;20234;-79